Weather observations for the past three days for
Providenciales
Imperial (Metric)
Date Time (edt) Wind (mph) Vis. (mi.) Weather Sky Cond. Temperature (ºF) Relative Humidity Wind Chill (°F) Heat Index (°F) Pressure Precipitation (in)
Air Dwpt 6 hour altimeter (in) sea level (mb) 1 hr 3 hr 6 hr
Max. Min.
05 19:00 Calm 0.00 Clear SKC014CB 80.6 73.4 79% 85 0 0.0
05 17:00 Calm 0.00 Partly Cloudy SCT014CB 84.2 73.4 70% 91 0 0.0
05 16:09 Calm 0.00 Partly Cloudy SCT014CB 84.2 75.2 74% 92 0 0.0
05 15:04 Calm 0.00 Partly Cloudy SCT014CB 84.2 73.4 70% 91 0 0.0
05 14:00 N 6 0.00 Partly Cloudy SCT014CB 84.2 73.4 70% 91 0 0.0
05 13:04 SE 6 0.00 Partly Cloudy SCT014CB 87.8 71.6 59% 94 0 0.0
05 12:00 SE 6 0.00 Partly Cloudy SCT014CB 86 73.4 66% 93 0 0.0
05 11:00 SE 6 0.00 Partly Cloudy SCT012CB 86 75.2 70% 95 0 0.0
05 10:00 SE 5 0.00 Partly Cloudy SCT012TCU 84.2 75.2 74% 92 0 0.0
05 09:10 NE 6 0.00 Partly Cloudy SCT012TCU 84.2 73.4 70% 91 0 0.0
05 07:10 Calm 0.00 Partly Cloudy SCT012 78.8 71.6 79% 82 0 0.0
05 06:10 Calm 0.00 Partly Cloudy SCT012 78.8 73.4 84% 82 0 0.0
04 17:00 SW 5 0.00 Partly Cloudy SCT015 84.2 80.6 89% 98 0 0.0
04 16:00 SE 5 0.00 Partly Cloudy SCT015 86 71.6 62% 92 0 0.0
04 15:00 SE 9 0.00 Partly Cloudy SCT015 86 71.6 62% 92 0 0.0
04 14:00 S 7 0.00 Partly Cloudy SCT012 84.2 73.4 70% 91 0 0.0
04 13:00 SE 8 0.00 Partly Cloudy SCT012 86 75.2 70% 95 0 0.0
04 12:00 SE 7 0.00 Partly Cloudy SCT012 84.2 73.4 70% 91 0 0.0
04 11:00 SE 7 0.00 Partly Cloudy SCT012 86 73.4 66% 93 0 0.0
04 09:00 SE 7 0.00 Partly Cloudy SCT012 82.4 75.2 79% 89 0 0.0
04 08:00 SE 5 0.00 Partly Cloudy SCT012 80.6 71.6 74% 85 0 0.0
04 06:00 E 7 0.00 Partly Cloudy SCT012 78.8 71.6 79% 82 0 0.0
03 20:00 Calm 0.00 Partly Cloudy SCT012 80.6 73.4 79% 85 0 0.0
03 17:00 SE 5 0.00 Partly Cloudy SCT012TCU 84.2 71.6 66% 90 0 0.0
03 16:00 SE 5 0.00 Partly Cloudy SCT012TCU 86 73.4 66% 93 0 0.0
03 15:00 SE 8 0.00 Partly Cloudy SCT012 86 73.4 66% 93 0 0.0
03 14:00 SE 9 0.00 Partly Cloudy SCT012 86 73.4 66% 93 0 0.0
03 13:00 SE 8 0.00 Partly Cloudy SCT012 86 73.4 66% 93 0 0.0
03 12:00 SE 8 0.00 Partly Cloudy SCT012 86 73.4 66% 93 0 0.0
03 11:15 E 9 0.00 Partly Cloudy SCT012 SCT030 84.2 73.4 70% 91 0 0.0
03 10:00 E 7 0.00 Partly Cloudy SCT012 84.2 73.4 70% 91 0 0.0
03 09:00 SE 6 0.00 Partly Cloudy SCT012 84.2 75.2 74% 92 0 0.0
03 08:00 E 7 0.00 Partly Cloudy SCT012CB SCT030 80.6 73.4 79% 85 0 0.0
03 07:00 E 6 0.00 Partly Cloudy SCT012 80.6 73.4 79% 85 0 0.0
03 06:00 E 9 0.00 Partly Cloudy SCT013CB 78.8 73.4 84% 82 0 0.0
Date Time (edt) Wind (mph) Vis. (mi.) Weather Sky Cond. Air Dwpt Max. Min. Relative Humidity Wind Chill (°F) Heat Index (°F) altimeter (in) sea level (mb) 1 hr 3 hr 6 hr
6 hour
Temperature (ºF) Pressure Precipitation (in)